createdAt,value
2019-05-13T00:00:14.404Z,1.57
2019-05-13T00:02:46.455Z,1.83
2019-05-13T00:05:18.656Z,1.50
2019-05-13T00:07:50.534Z,1.07
2019-05-13T00:10:24.201Z,1.50
2019-05-13T00:12:55.320Z,1.27
2019-05-13T00:15:27.318Z,1.57
2019-05-13T00:17:59.211Z,1.33
2019-05-13T00:20:30.669Z,1.23
2019-05-13T00:23:03.909Z,1.00
2019-05-13T00:25:36.037Z,1.13
2019-05-13T00:28:07.830Z,1.67
2019-05-13T00:30:39.691Z,1.20
2019-05-13T00:33:13.765Z,1.67
2019-05-13T00:35:45.069Z,1.67
2019-05-13T00:38:17.447Z,1.02
2019-05-13T00:40:49.017Z,1.67
2019-05-13T00:43:20.742Z,1.00
2019-05-13T00:45:53.455Z,1.03
2019-05-13T00:48:26.009Z,1.03
2019-05-13T00:50:58.798Z,1.53
2019-05-13T00:53:30.835Z,1.50
2019-05-13T00:56:04.021Z,1.03
2019-05-13T00:58:37.029Z,1.10
2019-05-13T01:01:09.900Z,1.12
2019-05-13T01:03:44.031Z,1.05
2019-05-13T01:06:15.105Z,1.10
2019-05-13T01:08:46.961Z,2.07
2019-05-13T01:11:19.519Z,1.30
2019-05-13T01:13:53.608Z,1.27
2019-05-13T01:16:25.331Z,1.40
2019-05-13T01:18:57.509Z,1.00
2019-05-13T01:21:29.598Z,1.57
2019-05-13T01:24:03.779Z,1.47
2019-05-13T01:26:34.873Z,1.43
2019-05-13T01:29:06.528Z,1.00
2019-05-13T01:31:38.689Z,1.52
2019-05-13T01:34:10.650Z,2.17
2019-05-13T01:36:44.455Z,1.10
2019-05-13T01:39:16.632Z,1.20
2019-05-13T01:41:49.006Z,1.53
2019-05-13T01:44:20.548Z,1.30
2019-05-13T01:46:53.779Z,1.67
2019-05-13T01:49:25.477Z,1.53
2019-05-13T01:51:58.082Z,1.90
2019-05-13T01:54:29.947Z,1.70
2019-05-13T01:57:04.483Z,1.47
2019-05-13T01:59:36.596Z,1.87
2019-05-13T02:02:08.815Z,1.43
2019-05-13T02:04:40.329Z,1.63
2019-05-13T02:07:13.811Z,2.25
2019-05-13T02:09:46.021Z,1.80
2019-05-13T02:12:19.078Z,1.67
2019-05-13T02:14:50.736Z,2.02
2019-05-13T02:17:23.574Z,1.57
2019-05-13T02:19:56.010Z,1.50
2019-05-13T02:22:28.387Z,1.67
2019-05-13T02:25:00.934Z,1.93
2019-05-13T02:27:34.496Z,2.07
2019-05-13T02:30:06.074Z,1.63
2019-05-13T02:32:38.149Z,1.77
2019-05-13T02:35:13.884Z,1.67
2019-05-13T02:37:44.004Z,1.73
2019-05-13T02:40:16.298Z,1.95
2019-05-13T02:42:48.010Z,2.57
2019-05-13T02:45:22.723Z,2.00
2019-05-13T02:47:54.225Z,2.70
2019-05-13T02:50:25.842Z,2.42
2019-05-13T02:52:57.961Z,1.67
2019-05-13T02:55:32.886Z,2.17
2019-05-13T02:58:03.860Z,1.77
2019-05-13T03:00:35.700Z,1.97
2019-05-13T03:03:07.375Z,2.30
2019-05-13T03:05:39.092Z,2.43
2019-05-13T03:08:12.829Z,1.50
2019-05-13T03:10:43.647Z,1.93
2019-05-13T03:13:15.718Z,1.90
2019-05-13T03:15:54.859Z,1.90
2019-05-13T03:18:26.793Z,1.97
2019-05-13T03:20:58.977Z,2.17
2019-05-13T03:23:32.760Z,1.60
2019-05-13T03:26:05.020Z,2.02
2019-05-13T03:28:36.616Z,2.20
2019-05-13T03:31:08.191Z,1.65
2019-05-13T03:33:45.324Z,2.02
2019-05-13T03:36:16.426Z,1.85
2019-05-13T03:39:01.712Z,3.70
2019-05-13T03:41:22.901Z,2.10
2019-05-13T03:43:57.164Z,2.60
2019-05-13T03:46:33.386Z,2.40
2019-05-13T03:49:05.615Z,2.67
2019-05-13T03:51:38.674Z,2.33
2019-05-13T03:54:12.651Z,2.80
2019-05-13T03:56:43.951Z,3.03
2019-05-13T03:59:16.102Z,2.80
2019-05-13T04:01:47.962Z,2.73
2019-05-13T04:04:23.456Z,2.95
2019-05-13T04:06:53.300Z,3.10
2019-05-13T04:09:31.251Z,2.93
2019-05-13T04:11:58.015Z,2.53
2019-05-13T04:14:33.038Z,2.27
2019-05-13T04:17:03.232Z,2.80
2019-05-13T04:19:36.082Z,2.20
2019-05-13T04:22:08.368Z,2.97
2019-05-13T04:24:42.671Z,2.43
2019-05-13T04:27:14.238Z,3.52
2019-05-13T04:29:46.720Z,2.35
2019-05-13T04:32:18.815Z,3.10
2019-05-13T04:34:52.835Z,2.42
2019-05-13T04:37:24.339Z,3.00
2019-05-13T04:39:56.800Z,2.00
2019-05-13T04:42:28.508Z,2.40
2019-05-13T04:45:02.958Z,2.27
2019-05-13T04:47:35.395Z,2.53
2019-05-13T04:50:08.353Z,3.40
2019-05-13T04:52:42.382Z,2.70
2019-05-13T04:55:15.563Z,2.77
2019-05-13T04:57:47.410Z,2.30
2019-05-13T05:00:32.324Z,2.57
2019-05-13T05:03:41.394Z,3.00
2019-05-13T05:06:18.179Z,3.57
2019-05-13T05:10:02.759Z,2.37
2019-05-13T05:12:42.789Z,2.93
2019-05-13T05:15:58.428Z,2.47
2019-05-13T05:19:02.248Z,2.33
2019-05-13T05:21:41.720Z,2.27
2019-05-13T05:24:52.145Z,1.97
2019-05-13T05:27:48.116Z,2.33
2019-05-13T05:30:59.499Z,3.03
2019-05-13T05:33:56.690Z,2.60
2019-05-13T05:36:58.218Z,2.22
2019-05-13T05:39:31.550Z,4.00
2019-05-13T05:42:03.975Z,2.93
2019-05-13T05:44:37.434Z,2.30
2019-05-13T05:47:11.233Z,2.10
2019-05-13T05:49:45.198Z,1.95
2019-05-13T05:52:17.889Z,2.03
2019-05-13T05:54:51.936Z,2.60
2019-05-13T05:57:25.245Z,2.57
2019-05-13T05:59:57.262Z,1.80
2019-05-13T06:02:32.039Z,2.30
2019-05-13T06:05:03.570Z,2.10
2019-05-13T06:07:36.106Z,3.63
2019-05-13T06:10:07.880Z,1.57
2019-05-13T06:12:42.178Z,2.13
2019-05-13T06:15:12.890Z,1.82
2019-05-13T06:17:44.981Z,1.97
2019-05-13T06:20:16.304Z,1.23
2019-05-13T06:22:48.084Z,2.17
2019-05-13T06:25:23.167Z,1.92
2019-05-13T06:27:53.319Z,2.40
2019-05-13T06:30:25.621Z,2.27
2019-05-13T06:32:57.877Z,2.27
2019-05-13T06:35:29.517Z,2.30
2019-05-13T06:38:01.647Z,2.63
2019-05-13T06:40:33.357Z,2.13
2019-05-13T06:43:05.210Z,1.57
2019-05-13T06:45:37.165Z,2.12
2019-05-13T06:48:08.826Z,1.80
2019-05-13T06:50:41.713Z,1.70
2019-05-13T06:53:13.449Z,2.67
2019-05-13T06:55:45.231Z,2.05
2019-05-13T06:58:17.137Z,1.72
2019-05-13T07:00:51.648Z,1.45
2019-05-13T07:03:22.505Z,1.77
2019-05-13T07:05:55.002Z,2.30
2019-05-13T07:08:26.381Z,1.93
2019-05-13T07:10:58.450Z,2.30
2019-05-13T07:13:32.310Z,2.27
2019-05-13T07:16:03.563Z,1.43
2019-05-13T07:18:35.592Z,1.63
2019-05-13T07:21:07.619Z,1.23
2019-05-13T07:23:42.229Z,1.90
2019-05-13T07:26:14.765Z,1.87
2019-05-13T07:28:46.988Z,2.50
2019-05-13T07:31:18.751Z,1.80
2019-05-13T07:33:51.724Z,1.90
2019-05-13T07:36:24.058Z,2.60
2019-05-13T07:38:55.829Z,2.62
2019-05-13T07:41:36.441Z,2.00
2019-05-13T07:44:02.668Z,2.40
2019-05-13T07:46:34.332Z,2.10
2019-05-13T07:49:05.955Z,1.60
2019-05-13T07:51:37.683Z,2.03
2019-05-13T07:54:11.384Z,2.33
2019-05-13T07:56:42.845Z,1.93
2019-05-13T07:59:14.667Z,1.47
2019-05-13T08:01:46.299Z,2.10
2019-05-13T08:04:22.760Z,1.77
2019-05-13T08:06:52.380Z,1.73
2019-05-13T08:09:24.785Z,1.37
2019-05-13T08:12:06.515Z,1.60
2019-05-13T08:14:32.395Z,1.77
2019-05-13T08:17:03.103Z,1.87
2019-05-13T08:19:34.930Z,1.50
2019-05-13T08:22:06.175Z,2.40
2019-05-13T08:24:42.482Z,1.30
2019-05-13T08:27:13.074Z,1.43
2019-05-13T08:29:45.457Z,1.67
2019-05-13T08:32:17.342Z,2.15
2019-05-13T08:34:57.915Z,1.90
2019-05-13T08:37:22.126Z,1.57
2019-05-13T08:39:54.265Z,1.83
2019-05-13T08:42:26.123Z,1.55
2019-05-13T08:44:57.927Z,1.80
2019-05-13T08:47:31.407Z,1.43
2019-05-13T08:50:04.327Z,1.67
2019-05-13T08:52:37.837Z,1.87
2019-05-13T08:55:13.513Z,1.10
2019-05-13T08:57:42.955Z,1.80
2019-05-13T09:00:14.998Z,1.55
2019-05-13T09:02:47.915Z,2.05
2019-05-13T09:05:21.562Z,1.15
2019-05-13T09:07:53.166Z,1.50
2019-05-13T09:10:24.729Z,1.43
2019-05-13T09:12:56.636Z,1.80
2019-05-13T09:15:28.640Z,1.40
2019-05-13T09:18:02.364Z,1.27
2019-05-13T09:20:36.127Z,1.23
2019-05-13T09:23:07.816Z,1.20
2019-05-13T09:25:41.642Z,1.23
2019-05-13T09:28:13.476Z,0.93
2019-05-13T09:30:45.048Z,1.67
2019-05-13T09:33:17.154Z,1.30
2019-05-13T09:35:50.987Z,1.70
2019-05-13T09:38:22.740Z,1.77
2019-05-13T09:40:53.964Z,1.10
2019-05-13T09:43:25.878Z,1.27
2019-05-13T09:45:57.400Z,1.10
2019-05-13T09:48:31.738Z,1.07
2019-05-13T09:51:02.877Z,0.90
2019-05-13T09:53:34.585Z,1.03
2019-05-13T09:56:06.142Z,1.00
2019-05-13T09:58:37.912Z,1.50
2019-05-13T10:01:11.602Z,1.00
2019-05-13T10:03:53.764Z,1.17
2019-05-13T10:06:16.420Z,0.60
2019-05-13T10:08:48.320Z,0.80
2019-05-13T10:11:21.764Z,0.50
2019-05-13T10:13:53.129Z,0.90
2019-05-13T10:16:24.971Z,0.90
2019-05-13T10:18:57.169Z,0.60
2019-05-13T10:21:28.990Z,0.80
2019-05-13T10:24:00.630Z,0.90
2019-05-13T10:26:33.114Z,0.87
2019-05-13T10:29:04.329Z,0.97
2019-05-13T10:31:36.085Z,0.70
2019-05-13T10:34:07.656Z,0.80
2019-05-13T10:36:42.127Z,0.50
2019-05-13T10:39:13.096Z,0.40
2019-05-13T10:41:45.483Z,0.50
2019-05-13T10:44:18.347Z,0.73
2019-05-13T10:46:52.191Z,0.50
2019-05-13T10:49:23.401Z,0.80
2019-05-13T10:51:55.546Z,0.80
2019-05-13T10:54:27.183Z,1.53
2019-05-13T10:56:59.910Z,0.50
2019-05-13T10:59:32.998Z,0.67
2019-05-13T11:02:04.957Z,0.70
2019-05-13T11:04:36.712Z,0.80
2019-05-13T11:07:08.671Z,1.00
2019-05-13T11:09:41.753Z,0.80
2019-05-13T11:12:13.310Z,0.50
2019-05-13T11:14:46.721Z,0.60
2019-05-13T11:17:23.288Z,0.70
2019-05-13T11:19:51.424Z,0.40
2019-05-13T11:22:23.128Z,0.77
2019-05-13T11:24:54.658Z,0.83
2019-05-13T11:27:26.529Z,0.60
2019-05-13T11:29:57.744Z,0.47
2019-05-13T11:32:31.710Z,0.60
2019-05-13T11:35:03.249Z,0.67
2019-05-13T11:37:34.799Z,0.60
2019-05-13T11:40:06.330Z,0.50
2019-05-13T11:42:38.405Z,0.60
2019-05-13T11:45:11.749Z,0.80
2019-05-13T11:47:45.030Z,0.40
2019-05-13T11:50:17.005Z,0.40
2019-05-13T11:52:48.005Z,0.67
2019-05-13T11:55:22.967Z,0.57
2019-05-13T11:57:53.359Z,1.20
2019-05-13T12:00:53.164Z,0.80
2019-05-13T12:03:24.279Z,0.40
2019-05-13T12:05:55.732Z,0.80
2019-05-13T12:08:27.204Z,0.60
2019-05-13T12:10:58.759Z,0.67
2019-05-13T12:13:32.794Z,0.70
2019-05-13T12:16:04.139Z,0.60
2019-05-13T12:18:43.177Z,0.60
2019-05-13T12:21:11.749Z,0.70
2019-05-13T12:23:42.988Z,0.47
2019-05-13T12:26:15.972Z,0.43
2019-05-13T12:28:47.807Z,0.70
2019-05-13T12:31:22.322Z,0.87
2019-05-13T12:33:52.848Z,0.60
2019-05-13T12:36:24.162Z,0.80
2019-05-13T12:38:57.511Z,0.40
2019-05-13T12:41:33.055Z,0.55
2019-05-13T12:44:02.770Z,0.60
2019-05-13T12:46:35.031Z,0.57
2019-05-13T12:49:06.887Z,0.60
2019-05-13T12:51:38.810Z,0.90
2019-05-13T12:54:13.550Z,0.67
2019-05-13T12:56:44.280Z,0.60
2019-05-13T12:59:16.514Z,0.80
2019-05-13T13:01:48.265Z,0.60
2019-05-13T13:04:23.624Z,0.40
2019-05-13T13:06:53.446Z,0.40
2019-05-13T13:09:25.325Z,0.45
2019-05-13T13:11:57.470Z,0.50
2019-05-13T13:14:36.300Z,0.40
2019-05-13T13:17:04.078Z,0.40
2019-05-13T13:19:35.971Z,0.70
2019-05-13T13:22:08.064Z,0.63
2019-05-13T13:24:48.384Z,0.40
2019-05-13T13:27:20.807Z,0.37
2019-05-13T13:29:47.253Z,0.40
2019-05-13T13:32:19.096Z,0.50
2019-05-13T13:34:54.834Z,0.47
2019-05-13T13:37:24.324Z,0.90
2019-05-13T13:39:55.514Z,0.73
2019-05-13T13:42:27.546Z,0.63
2019-05-13T13:44:59.069Z,0.60
2019-05-13T13:47:33.216Z,0.40
2019-05-13T13:50:04.112Z,0.50
2019-05-13T13:52:35.375Z,0.40
2019-05-13T13:55:08.905Z,0.70
2019-05-13T13:57:44.816Z,0.50
2019-05-13T14:00:31.776Z,0.50
2019-05-13T14:02:47.447Z,0.50
2019-05-13T14:05:18.852Z,0.40
2019-05-13T14:07:52.198Z,0.67
2019-05-13T14:10:23.247Z,0.50
2019-05-13T14:12:54.878Z,0.63
2019-05-13T14:15:26.186Z,0.43
2019-05-13T14:17:58.063Z,0.60
2019-05-13T14:20:29.343Z,0.50
2019-05-13T14:23:02.776Z,0.37
2019-05-13T14:25:34.779Z,0.40
2019-05-13T14:28:06.529Z,0.42
2019-05-13T14:30:38.204Z,0.47
2019-05-13T14:33:09.575Z,0.70
2019-05-13T14:35:41.689Z,0.50
2019-05-13T14:38:13.181Z,0.70
2019-05-13T14:40:45.009Z,1.40
2019-05-13T14:43:17.524Z,0.40
2019-05-13T14:45:52.223Z,0.40
2019-05-13T14:48:23.986Z,0.30
2019-05-13T14:50:54.912Z,0.43
2019-05-13T14:53:27.054Z,0.70
2019-05-13T14:55:58.815Z,0.60
2019-05-13T14:58:32.431Z,0.80
2019-05-13T15:01:17.757Z,0.60
2019-05-13T15:03:37.260Z,0.50
2019-05-13T15:06:11.801Z,0.43
2019-05-13T15:08:42.922Z,0.40
2019-05-13T15:11:14.693Z,0.50
2019-05-13T15:13:47.585Z,0.40
2019-05-13T15:16:22.130Z,0.50
2019-05-13T15:18:53.419Z,0.50
2019-05-13T15:21:24.975Z,0.50
2019-05-13T15:23:56.489Z,0.40
2019-05-13T15:26:28.136Z,0.40
2019-05-13T15:29:04.664Z,0.62
2019-05-13T15:31:33.424Z,0.40
2019-05-13T15:34:04.868Z,0.50
2019-05-13T15:36:36.570Z,0.87
2019-05-13T15:39:08.310Z,0.73
2019-05-13T15:41:41.758Z,0.53
2019-05-13T15:44:13.179Z,0.57
2019-05-13T15:46:44.925Z,1.17
2019-05-13T15:49:16.384Z,0.60
2019-05-13T15:51:48.336Z,0.40
2019-05-13T15:54:22.148Z,0.43
2019-05-13T15:56:53.470Z,0.57
2019-05-13T15:59:25.030Z,0.70
2019-05-13T16:01:56.664Z,0.60
2019-05-13T16:04:27.722Z,0.60
2019-05-13T16:07:01.698Z,0.57
2019-05-13T16:09:33.205Z,0.50
2019-05-13T16:12:04.705Z,0.40
2019-05-13T16:14:36.997Z,0.40
2019-05-13T16:17:08.874Z,0.50
2019-05-13T16:19:42.027Z,0.40
2019-05-13T16:22:14.022Z,0.50
2019-05-13T16:24:45.719Z,0.40
2019-05-13T16:27:17.091Z,0.80
2019-05-13T16:29:51.382Z,0.73
2019-05-13T16:32:23.447Z,0.73
2019-05-13T16:34:55.050Z,0.60
2019-05-13T16:37:26.306Z,0.60
2019-05-13T16:39:57.552Z,0.73
2019-05-13T16:42:31.186Z,0.73
2019-05-13T16:45:03.473Z,0.65
2019-05-13T16:47:36.206Z,0.63
2019-05-13T16:50:11.316Z,1.20
2019-05-13T16:52:42.719Z,0.43
2019-05-13T16:55:14.471Z,0.50
2019-05-13T16:57:46.450Z,0.90
2019-05-13T17:00:18.789Z,0.80
2019-05-13T17:02:51.825Z,0.93
2019-05-13T17:05:23.841Z,0.97
2019-05-13T17:07:55.843Z,0.67
2019-05-13T17:10:27.870Z,0.97
2019-05-13T17:13:02.968Z,0.93
2019-05-13T17:15:33.513Z,1.07
2019-05-13T17:18:11.665Z,0.85
2019-05-13T17:20:38.907Z,0.87
2019-05-13T17:23:12.427Z,0.50
2019-05-13T17:25:44.343Z,0.73
2019-05-13T17:28:16.390Z,0.53
2019-05-13T17:30:47.712Z,0.67
2019-05-13T17:33:22.871Z,0.60
2019-05-13T17:35:52.830Z,1.00
2019-05-13T17:38:25.053Z,0.83
2019-05-13T17:40:56.502Z,0.60
2019-05-13T17:43:28.109Z,0.60
2019-05-13T17:45:59.394Z,0.72
2019-05-13T17:48:32.913Z,0.63
2019-05-13T17:51:04.944Z,0.90
2019-05-13T17:53:36.743Z,0.77
2019-05-13T17:56:08.111Z,0.50
2019-05-13T17:58:42.055Z,0.90
2019-05-13T18:01:14.617Z,0.60
2019-05-13T18:03:46.682Z,1.07
2019-05-13T18:06:18.313Z,0.50
2019-05-13T18:08:51.756Z,0.60
2019-05-13T18:11:24.869Z,0.60
2019-05-13T18:13:56.640Z,0.70
2019-05-13T18:16:28.204Z,0.83
2019-05-13T18:19:00.379Z,0.55
2019-05-13T18:21:32.362Z,0.50
2019-05-13T18:24:04.588Z,0.57
2019-05-13T18:26:36.175Z,0.77
2019-05-13T18:29:08.036Z,1.00
2019-05-13T18:31:41.817Z,0.90
2019-05-13T18:34:12.668Z,0.60
2019-05-13T18:36:44.248Z,1.27
2019-05-13T18:39:15.922Z,0.57
2019-05-13T18:41:48.123Z,0.70
2019-05-13T18:44:19.828Z,0.60
2019-05-13T18:46:52.408Z,0.50
2019-05-13T18:49:25.349Z,0.60
2019-05-13T18:51:57.467Z,0.60
2019-05-13T18:54:31.585Z,1.20
2019-05-13T18:57:03.393Z,1.72
2019-05-13T18:59:35.060Z,1.62
2019-05-13T19:02:06.886Z,1.85
2019-05-13T19:04:38.525Z,2.37
2019-05-13T19:07:10.623Z,1.65
2019-05-13T19:09:42.539Z,3.47
2019-05-13T19:12:15.407Z,2.90
2019-05-13T19:14:46.944Z,2.07
2019-05-13T19:17:18.874Z,1.57
2019-05-13T19:19:51.488Z,1.30
2019-05-13T19:22:23.486Z,1.47
2019-05-13T19:24:55.923Z,1.55
2019-05-13T19:27:27.632Z,1.30
2019-05-13T19:30:01.239Z,2.03
2019-05-13T19:32:32.520Z,2.10
2019-05-13T19:35:03.679Z,1.80
2019-05-13T19:37:36.371Z,1.80
2019-05-13T19:40:09.304Z,1.40
2019-05-13T19:42:41.973Z,1.10
2019-05-13T19:45:17.230Z,1.37
2019-05-13T19:47:48.770Z,0.77
2019-05-13T19:50:22.387Z,0.90
2019-05-13T19:52:54.224Z,0.70
2019-05-13T19:55:27.127Z,0.70
2019-05-13T19:57:58.945Z,0.87
2019-05-13T20:00:31.597Z,1.00
2019-05-13T20:03:02.890Z,1.07
2019-05-13T20:05:34.598Z,0.75
2019-05-13T20:08:06.665Z,0.73
2019-05-13T20:10:38.637Z,0.53
2019-05-13T20:13:11.277Z,0.70
2019-05-13T20:15:43.348Z,0.50
2019-05-13T20:18:15.505Z,0.60
2019-05-13T20:20:47.450Z,0.70
2019-05-13T20:23:21.327Z,0.90
2019-05-13T20:25:53.173Z,1.00
2019-05-13T20:28:24.939Z,0.80
2019-05-13T20:30:56.857Z,0.93
2019-05-13T20:33:28.933Z,0.90
2019-05-13T20:36:01.631Z,0.70
2019-05-13T20:38:33.387Z,0.50
2019-05-13T20:41:05.325Z,0.70
2019-05-13T20:43:36.976Z,0.90
2019-05-13T20:46:08.640Z,0.77
2019-05-13T20:48:41.201Z,0.88
2019-05-13T20:51:13.507Z,1.25
2019-05-13T20:53:45.594Z,0.93
2019-05-13T20:56:17.502Z,0.87
2019-05-13T20:58:51.330Z,0.77
2019-05-13T21:01:23.641Z,1.13
2019-05-13T21:03:56.082Z,0.83
2019-05-13T21:06:27.941Z,0.80
2019-05-13T21:09:01.502Z,1.07
2019-05-13T21:11:35.534Z,0.87
2019-05-13T21:14:07.637Z,1.13
2019-05-13T21:16:41.603Z,0.80
2019-05-13T21:19:13.151Z,0.80
2019-05-13T21:21:44.962Z,1.00
2019-05-13T21:24:16.746Z,1.27
2019-05-13T21:26:51.099Z,1.17
2019-05-13T21:29:22.063Z,0.87
2019-05-13T21:31:54.070Z,0.83
2019-05-13T21:34:26.040Z,1.30
2019-05-13T21:36:58.412Z,1.60
2019-05-13T21:39:31.986Z,1.10
2019-05-13T21:42:03.849Z,1.20
2019-05-13T21:44:35.970Z,0.90
2019-05-13T21:47:08.064Z,0.72
2019-05-13T21:49:42.154Z,1.00
2019-05-13T21:52:13.644Z,1.00
2019-05-13T21:54:45.517Z,1.02
2019-05-13T21:57:17.280Z,1.10
2019-05-13T21:59:48.848Z,1.30
2019-05-13T22:02:23.248Z,0.90
2019-05-13T22:04:54.812Z,0.90
2019-05-13T22:07:26.126Z,0.77
2019-05-13T22:09:58.700Z,1.12
2019-05-13T22:12:32.029Z,0.90
2019-05-13T22:15:03.259Z,1.33
2019-05-13T22:17:36.233Z,1.00
2019-05-13T22:20:08.624Z,1.42
2019-05-13T22:22:41.516Z,1.32
2019-05-13T22:25:13.631Z,1.37
2019-05-13T22:27:45.620Z,0.97
2019-05-13T22:30:17.290Z,1.20
2019-05-13T22:32:49.549Z,1.20
2019-05-13T22:35:21.862Z,1.53
2019-05-13T22:37:54.070Z,1.00
2019-05-13T22:40:25.953Z,1.10
2019-05-13T22:42:57.794Z,1.13
2019-05-13T22:45:31.298Z,0.70
2019-05-13T22:48:03.977Z,1.02
2019-05-13T22:50:36.089Z,0.80
2019-05-13T22:53:07.794Z,1.67
2019-05-13T22:55:41.617Z,1.10
2019-05-13T22:58:13.274Z,1.10
2019-05-13T23:00:45.109Z,0.90
2019-05-13T23:03:18.824Z,1.20
2019-05-13T23:05:52.185Z,0.90
2019-05-13T23:08:23.895Z,1.30
2019-05-13T23:10:55.645Z,1.17
2019-05-13T23:13:26.801Z,1.23
2019-05-13T23:15:59.042Z,0.80
2019-05-13T23:18:31.613Z,1.03
2019-05-13T23:21:03.396Z,1.50
2019-05-13T23:23:35.332Z,0.90
2019-05-13T23:26:06.920Z,1.20
2019-05-13T23:28:38.933Z,0.90
2019-05-13T23:31:12.337Z,1.35
2019-05-13T23:33:44.408Z,1.37
2019-05-13T23:36:16.584Z,1.30
2019-05-13T23:38:48.340Z,1.50
2019-05-13T23:41:21.812Z,1.67
2019-05-13T23:43:55.049Z,1.20
2019-05-13T23:46:26.630Z,1.20
2019-05-13T23:48:58.044Z,1.17
2019-05-13T23:51:32.054Z,1.47
2019-05-13T23:54:03.486Z,1.30
2019-05-13T23:56:35.224Z,1.30
2019-05-13T23:59:07.674Z,1.30
